バンコク/スワンナプーム の空港の天気 - METARとTAF

スワンナプーム国際空港 ( VTBS / BKK ) - タイ サムットプラーカーン県 (バンコク近郊)
飛行場実況気象(Metar)
観測時間12/12 17:00 ICT (12/12 10:00 UTC)
風向・風速北東 6m/s
視程10km以上
天気現象
少しの雲 雲底高度 610m
全天の8割程度の雲 雲底高度 3050m
気温29℃
湿度66%
気圧1011hPa
METARVTBS 121000Z 04011KT 9999 FEW020 BKN100 29/22 Q1011 NOSIG
過去の天気等 Google飛行場航空写真 Wunderground天気予報

過去48時間のMETAR

飛行場予報(TAF)
発表時間: 12/12 12:00 ICT (12/12 05:00 UTC)
予報対象時間: 12日13時 ICT ~ 13日19時 ICT
風向・風速北東 4m/s
視程10km以上
少しの雲 雲底高度 1070m
全天の4割程度の雲 雲底高度 3050m
TAF VTBS 120500Z 1206/1312 05008KT 9999 FEW035 SCT100